Whitefield, Oklahoma
Current Conditions -  °F | °C
As of 9:35 PM on Saturday 20 Dec 2014 (Local Time) from KGZL Reporting Station
Haze Haze  
Wind Chill: 41°   Ceiling: 2800
Heat Index: 45°   Visibility: 4mi
Dew Point: 41°   Wind: 6mph
Humidity: 87%   Direction: 120°ESE
Pressure: 30.2"   Gusts: NA
Location:  35.25°N, 95.24°W
Report Text: KGZL 210335Z AUTO 12005KT 4SM BR OVC028 07/05 A3020 RMK AO2
Loading
Personal Weather Stations






























Interactive Weather Map New forecast layout! Learn more

10-Day Weather Forecast

Advertisements
Track Severe Weather on mobile